createdAt,value
2022-09-22T00:01:11.639Z,8.04
2022-09-22T00:03:43.437Z,7.98
2022-09-22T00:06:17.627Z,7.92
2022-09-22T00:08:48.902Z,7.88
2022-09-22T00:11:18.625Z,7.85
2022-09-22T00:13:51.283Z,7.86
2022-09-22T00:16:23.871Z,7.85
2022-09-22T00:18:50.783Z,7.86
2022-09-22T00:21:19.354Z,7.85
2022-09-22T00:23:49.344Z,7.83
2022-09-22T00:26:21.628Z,7.81
2022-09-22T00:28:49.668Z,7.76
2022-09-22T00:31:24.661Z,7.75
2022-09-22T00:33:53.204Z,7.73
2022-09-22T00:36:22.209Z,7.72
2022-09-22T00:38:52.061Z,7.68
2022-09-22T00:41:23.781Z,7.62
2022-09-22T00:44:12.318Z,7.56
2022-09-22T00:46:41.715Z,7.52
2022-09-22T00:49:09.398Z,7.49
2022-09-22T00:51:39.822Z,7.48
2022-09-22T00:54:11.891Z,7.51
2022-09-22T00:56:55.978Z,7.52
2022-09-22T00:59:25.442Z,7.53
2022-09-22T01:01:52.760Z,7.53
2022-09-22T01:04:19.516Z,7.49
2022-09-22T01:06:46.420Z,7.42
2022-09-22T01:09:13.833Z,7.39
2022-09-22T01:11:41.471Z,7.36
2022-09-22T01:14:28.327Z,7.32
2022-09-22T01:17:08.671Z,7.30
2022-09-22T01:19:43.915Z,7.29
2022-09-22T01:22:48.947Z,7.27
2022-09-22T01:25:29.326Z,7.24
2022-09-22T01:27:58.827Z,7.24
2022-09-22T01:30:36.624Z,7.22
2022-09-22T01:33:19.939Z,7.18
2022-09-22T01:36:02.665Z,7.15
2022-09-22T01:38:36.300Z,7.17
2022-09-22T01:41:33.937Z,7.19
2022-09-22T01:44:07.505Z,7.20
2022-09-22T01:46:42.934Z,7.20
2022-09-22T01:49:14.839Z,7.22
2022-09-22T01:51:47.726Z,7.20
2022-09-22T01:54:24.824Z,7.13
2022-09-22T01:56:58.422Z,7.05
2022-09-22T01:59:30.191Z,6.97
2022-09-22T02:02:02.326Z,6.90
2022-09-22T02:04:41.126Z,6.85
2022-09-22T02:07:15.572Z,6.82
2022-09-22T02:09:42.556Z,6.78
2022-09-22T02:12:09.155Z,6.76
2022-09-22T02:14:35.909Z,6.74
2022-09-22T02:17:02.571Z,6.76
2022-09-22T02:19:39.869Z,6.77
2022-09-22T02:22:08.123Z,6.77
2022-09-22T02:24:37.502Z,6.75
2022-09-22T02:27:18.604Z,6.75
2022-09-22T02:30:12.628Z,6.74
2022-09-22T02:32:42.664Z,6.69
2022-09-22T02:35:09.926Z,6.63
2022-09-22T02:37:41.970Z,6.62
2022-09-22T02:40:27.553Z,6.59
2022-09-22T02:43:03.127Z,6.59
2022-09-22T02:45:37.965Z,6.61
2022-09-22T02:48:19.709Z,6.58
2022-09-22T02:50:46.136Z,6.55
2022-09-22T02:53:15.671Z,6.54
2022-09-22T02:55:43.691Z,6.52
2022-09-22T02:58:11.013Z,6.50
2022-09-22T03:00:42.131Z,6.48
2022-09-22T03:03:10.611Z,6.45
2022-09-22T03:05:38.184Z,6.45
2022-09-22T03:08:05.067Z,6.44
2022-09-22T03:10:31.633Z,6.44
2022-09-22T03:13:15.468Z,6.38
2022-09-22T03:15:44.022Z,6.32
2022-09-22T03:18:10.508Z,6.30
2022-09-22T03:20:37.084Z,6.30
2022-09-22T03:23:03.579Z,6.30
2022-09-22T03:25:30.060Z,6.31
2022-09-22T03:27:56.593Z,6.29
2022-09-22T03:30:23.127Z,6.26
2022-09-22T03:32:49.676Z,6.20
2022-09-22T03:35:16.256Z,6.13
2022-09-22T03:37:42.759Z,6.09
2022-09-22T03:40:09.597Z,6.07
2022-09-22T03:42:36.139Z,6.03
2022-09-22T03:45:04.421Z,6.02
2022-09-22T03:47:31.526Z,6.03
2022-09-22T03:49:58.164Z,6.02
2022-09-22T03:52:24.706Z,6.03
2022-09-22T03:54:52.181Z,6.06
2022-09-22T03:57:18.668Z,6.07
2022-09-22T03:59:45.475Z,6.07
2022-09-22T04:02:13.002Z,6.05
2022-09-22T04:04:39.562Z,6.03
2022-09-22T04:07:07.371Z,6.02
2022-09-22T04:09:34.528Z,6.02
2022-09-22T04:12:01.140Z,6.01
2022-09-22T04:14:27.936Z,6.00
2022-09-22T04:16:54.596Z,6.01
2022-09-22T04:19:21.220Z,6.01
2022-09-22T04:21:47.670Z,5.98
2022-09-22T04:24:14.178Z,5.98
2022-09-22T04:26:51.792Z,5.98
2022-09-22T04:29:27.261Z,5.96
2022-09-22T04:31:53.765Z,5.96
2022-09-22T04:34:20.302Z,5.95
2022-09-22T04:36:46.764Z,5.93
2022-09-22T04:39:13.383Z,5.89
2022-09-22T04:41:39.941Z,5.84
2022-09-22T04:44:06.373Z,5.81
2022-09-22T04:46:33.157Z,5.82
2022-09-22T04:48:59.779Z,5.82
2022-09-22T04:51:26.347Z,5.80
2022-09-22T04:53:52.822Z,5.81
2022-09-22T04:56:19.570Z,5.78
2022-09-22T04:58:46.101Z,5.74
2022-09-22T05:01:12.809Z,5.74
2022-09-22T05:03:39.453Z,5.72
2022-09-22T05:06:06.774Z,5.70
2022-09-22T05:08:33.488Z,5.69
2022-09-22T05:10:59.975Z,5.71
2022-09-22T05:13:26.891Z,5.74
2022-09-22T05:15:53.482Z,5.77
2022-09-22T05:18:20.673Z,5.78
2022-09-22T05:20:47.553Z,5.79
2022-09-22T05:23:14.106Z,5.82
2022-09-22T05:25:41.693Z,5.85
2022-09-22T05:28:08.410Z,5.86
2022-09-22T05:30:34.892Z,5.87
2022-09-22T05:33:01.360Z,5.87
2022-09-22T05:35:27.832Z,5.89
2022-09-22T05:37:54.465Z,5.91
2022-09-22T05:40:24.004Z,5.92
2022-09-22T05:42:51.670Z,5.95
2022-09-22T05:45:19.594Z,6.00
2022-09-22T05:47:46.511Z,6.04
2022-09-22T05:50:14.822Z,6.04
2022-09-22T05:52:41.522Z,6.02
2022-09-22T05:55:09.109Z,6.04
2022-09-22T05:57:35.651Z,6.10
2022-09-22T06:00:03.017Z,6.15
2022-09-22T06:02:38.406Z,6.20
2022-09-22T06:05:05.133Z,6.23
2022-09-22T06:07:31.670Z,6.27
2022-09-22T06:09:58.169Z,6.31
2022-09-22T06:12:24.776Z,6.32
2022-09-22T06:14:51.254Z,6.37
2022-09-22T06:17:17.827Z,6.42
2022-09-22T06:19:46.156Z,6.46
2022-09-22T06:22:12.588Z,6.54
2022-09-22T06:24:39.025Z,6.60
2022-09-22T06:27:05.611Z,6.61
2022-09-22T06:29:32.089Z,6.64
2022-09-22T06:31:58.642Z,6.70
2022-09-22T06:34:27.128Z,6.79
2022-09-22T06:36:57.140Z,6.85
2022-09-22T06:39:23.736Z,6.91
2022-09-22T06:41:50.459Z,6.99
2022-09-22T06:44:16.949Z,7.07
2022-09-22T06:46:43.455Z,7.16
2022-09-22T06:49:09.964Z,7.24
2022-09-22T06:51:36.931Z,7.32
2022-09-22T06:54:05.856Z,7.43
2022-09-22T06:56:37.044Z,7.54
2022-09-22T06:59:12.177Z,7.63
2022-09-22T07:01:40.491Z,7.73
2022-09-22T07:04:08.116Z,7.84
2022-09-22T07:06:37.291Z,7.96
2022-09-22T07:09:05.394Z,8.09
2022-09-22T07:11:34.278Z,8.19
2022-09-22T07:14:04.135Z,8.28
2022-09-22T07:16:30.697Z,8.40
2022-09-22T07:18:58.453Z,8.49
2022-09-22T07:21:36.252Z,8.60
2022-09-22T07:24:04.287Z,8.74
2022-09-22T07:26:33.726Z,8.87
2022-09-22T07:29:02.803Z,8.98
2022-09-22T07:31:31.911Z,9.11
2022-09-22T07:34:01.646Z,9.23
2022-09-22T07:36:30.808Z,9.36
2022-09-22T07:39:02.938Z,9.49
2022-09-22T07:41:31.652Z,9.60
2022-09-22T07:44:22.736Z,9.71
2022-09-22T07:46:49.348Z,9.84
2022-09-22T07:49:17.576Z,9.96
2022-09-22T07:51:44.083Z,10.08
2022-09-22T07:54:10.830Z,10.22
2022-09-22T07:56:43.486Z,10.35
2022-09-22T07:59:12.499Z,10.49
2022-09-22T08:01:44.640Z,10.61
2022-09-22T08:04:16.461Z,10.76
2022-09-22T08:06:44.368Z,10.89
2022-09-22T08:09:11.797Z,11.01
2022-09-22T08:11:38.804Z,11.13
2022-09-22T08:14:08.347Z,11.24
2022-09-22T08:16:36.568Z,11.37
2022-09-22T08:19:10.566Z,11.51
2022-09-22T08:21:46.433Z,11.68
2022-09-22T08:24:16.341Z,11.80
2022-09-22T08:26:48.082Z,11.90
2022-09-22T08:29:14.949Z,12.03
2022-09-22T08:31:42.328Z,12.17
2022-09-22T08:34:09.688Z,12.31
2022-09-22T08:36:37.500Z,12.42
2022-09-22T08:39:05.099Z,12.52
2022-09-22T08:41:44.003Z,12.64
2022-09-22T08:44:10.701Z,12.76
2022-09-22T08:46:41.122Z,12.82
2022-09-22T08:49:50.740Z,12.92
2022-09-22T08:52:35.374Z,13.05
2022-09-22T08:55:03.350Z,13.18
2022-09-22T08:57:47.461Z,13.33
2022-09-22T09:00:17.296Z,13.45
2022-09-22T09:03:08.506Z,13.55
2022-09-22T09:05:55.765Z,13.66
2022-09-22T09:08:50.535Z,13.79
2022-09-22T09:11:36.048Z,13.95
2022-09-22T09:14:02.682Z,14.09
2022-09-22T09:16:38.702Z,14.19
2022-09-22T09:19:14.468Z,14.29
2022-09-22T09:21:47.289Z,14.40
2022-09-22T09:27:40.235Z,14.60
2022-09-22T09:30:21.199Z,14.66
2022-09-22T09:32:56.337Z,14.68
2022-09-22T09:35:45.211Z,14.78
2022-09-22T09:38:15.426Z,14.85
2022-09-22T09:40:44.589Z,14.92
2022-09-22T09:43:12.015Z,14.99
2022-09-22T09:46:12.906Z,15.10
2022-09-22T09:49:05.460Z,15.23
2022-09-22T09:51:39.677Z,15.30
2022-09-22T09:54:11.894Z,15.41
2022-09-22T09:57:08.044Z,15.49
2022-09-22T09:59:55.101Z,15.64
2022-09-22T10:02:27.311Z,15.63
2022-09-22T10:05:05.063Z,15.75
2022-09-22T10:07:41.772Z,15.86
2022-09-22T10:10:23.614Z,15.90
2022-09-22T10:12:50.139Z,15.93
2022-09-22T10:15:25.416Z,16.02
2022-09-22T10:17:52.267Z,16.05
2022-09-22T10:20:28.183Z,16.03
2022-09-22T10:22:56.247Z,16.08
2022-09-22T10:25:31.979Z,16.14
2022-09-22T10:28:05.011Z,16.25
2022-09-22T10:30:36.929Z,16.25
2022-09-22T10:33:20.388Z,16.32
2022-09-22T10:36:07.737Z,16.34
2022-09-22T10:38:42.947Z,16.47
2022-09-22T10:41:14.866Z,16.55
2022-09-22T10:43:50.189Z,16.58
2022-09-22T10:46:32.526Z,16.60
2022-09-22T10:49:23.793Z,16.70
2022-09-22T10:52:04.138Z,16.84
2022-09-22T10:54:43.323Z,16.91
2022-09-22T10:57:38.835Z,16.96
2022-09-22T11:00:17.202Z,16.94
2022-09-22T11:02:57.277Z,16.98
2022-09-22T11:06:10.623Z,17.07
2022-09-22T11:09:19.521Z,17.20
2022-09-22T11:12:16.517Z,17.31
2022-09-22T11:15:02.185Z,17.38
2022-09-22T11:17:53.672Z,17.44
2022-09-22T11:20:38.228Z,17.50
2022-09-22T11:23:22.372Z,17.47
2022-09-22T11:26:13.949Z,17.40
2022-09-22T11:28:54.906Z,17.41
2022-09-22T11:31:59.559Z,17.46
2022-09-22T11:34:58.007Z,17.50
2022-09-22T11:38:22.409Z,17.57
2022-09-22T11:41:03.012Z,17.78
2022-09-22T11:43:58.502Z,17.98
2022-09-22T11:47:03.360Z,18.05
2022-09-22T11:50:00.861Z,18.04
2022-09-22T11:52:58.422Z,18.09
2022-09-22T11:55:46.910Z,18.14
2022-09-22T11:58:21.395Z,18.17
2022-09-22T12:00:56.586Z,18.15
2022-09-22T12:03:33.093Z,18.18
2022-09-22T12:06:05.847Z,18.30
2022-09-22T12:08:38.849Z,18.36
2022-09-22T12:11:07.935Z,18.45
2022-09-22T12:13:37.274Z,18.47
2022-09-22T12:16:07.280Z,18.55
2022-09-22T12:19:00.235Z,18.62
2022-09-22T12:21:50.301Z,18.60
2022-09-22T12:24:16.896Z,18.68
2022-09-22T12:26:47.080Z,18.67
2022-09-22T12:29:13.767Z,18.76
2022-09-22T12:31:43.743Z,18.86
2022-09-22T12:34:23.358Z,18.89
2022-09-22T12:36:55.231Z,18.95
2022-09-22T12:39:29.242Z,18.97
2022-09-22T12:42:01.587Z,18.99
2022-09-22T12:44:51.464Z,19.01
2022-09-22T12:47:28.974Z,19.11
2022-09-22T12:50:00.899Z,19.15
2022-09-22T12:52:39.637Z,19.22
2022-09-22T12:55:38.553Z,19.33
2022-09-22T12:58:28.321Z,19.39
2022-09-22T13:01:14.614Z,19.40
2022-09-22T13:03:49.138Z,19.33
2022-09-22T13:06:21.965Z,19.37
2022-09-22T13:08:48.525Z,19.42
2022-09-22T13:11:15.392Z,19.48
2022-09-22T13:13:47.229Z,19.53
2022-09-22T13:16:25.752Z,19.63
2022-09-22T13:18:52.845Z,19.61
2022-09-22T13:21:28.009Z,19.60
2022-09-22T13:23:55.400Z,19.69
2022-09-22T13:26:34.473Z,19.81
2022-09-22T13:29:12.723Z,19.90
2022-09-22T13:31:48.485Z,19.93
2022-09-22T13:34:33.296Z,19.81
2022-09-22T13:37:04.435Z,19.82
2022-09-22T13:39:35.129Z,19.83
2022-09-22T13:42:14.402Z,19.81
2022-09-22T13:44:45.489Z,19.78
2022-09-22T13:47:20.112Z,19.84
2022-09-22T13:49:53.134Z,19.91
2022-09-22T13:52:24.734Z,19.97
2022-09-22T13:54:57.705Z,20.00
2022-09-22T13:57:31.699Z,20.01
2022-09-22T14:00:00.240Z,20.00
2022-09-22T14:02:31.869Z,19.87
2022-09-22T14:05:18.046Z,19.93
2022-09-22T14:08:07.650Z,20.02
2022-09-22T14:10:32.712Z,20.07
2022-09-22T14:12:59.308Z,20.11
2022-09-22T14:15:36.140Z,20.16
2022-09-22T14:18:09.926Z,20.16
2022-09-22T14:20:43.421Z,20.06
2022-09-22T14:23:32.226Z,19.89
2022-09-22T14:26:02.205Z,19.76
2022-09-22T14:28:36.771Z,19.74
2022-09-22T14:31:14.339Z,19.76
2022-09-22T14:33:44.910Z,19.87
2022-09-22T14:36:17.267Z,19.94
2022-09-22T14:38:50.057Z,19.98
2022-09-22T14:41:27.588Z,20.04
2022-09-22T14:43:55.139Z,20.07
2022-09-22T14:46:33.660Z,19.98
2022-09-22T14:49:40.617Z,19.80
2022-09-22T14:52:32.951Z,19.70
2022-09-22T14:55:10.206Z,19.65
2022-09-22T14:57:36.789Z,19.62
2022-09-22T15:00:22.813Z,19.62
2022-09-22T15:02:53.910Z,19.72
2022-09-22T15:05:30.379Z,19.80
2022-09-22T15:07:58.356Z,19.73
2022-09-22T15:10:27.852Z,19.67
2022-09-22T15:12:56.789Z,19.68
2022-09-22T15:15:26.694Z,19.69
2022-09-22T15:18:16.086Z,19.68
2022-09-22T15:20:50.943Z,19.72
2022-09-22T15:23:21.485Z,19.81
2022-09-22T15:25:49.024Z,19.87
2022-09-22T15:28:18.228Z,19.92
2022-09-22T15:30:47.485Z,19.95
2022-09-22T15:33:15.710Z,19.94
2022-09-22T15:35:44.718Z,19.91
2022-09-22T15:38:27.543Z,19.89
2022-09-22T15:40:54.115Z,19.87
2022-09-22T15:43:23.397Z,19.88
2022-09-22T15:45:53.893Z,19.86
2022-09-22T15:48:27.022Z,19.76
2022-09-22T15:50:55.337Z,19.82
2022-09-22T15:53:23.109Z,19.86
2022-09-22T15:55:54.493Z,19.88
2022-09-22T15:58:23.222Z,19.90
2022-09-22T16:00:53.309Z,19.92
2022-09-22T16:03:23.442Z,19.88
2022-09-22T16:05:56.616Z,19.84
2022-09-22T16:08:31.329Z,19.83
2022-09-22T16:11:05.530Z,19.82
2022-09-22T16:13:33.307Z,19.80
2022-09-22T16:16:05.467Z,19.76
2022-09-22T16:18:33.072Z,19.71
2022-09-22T16:21:06.732Z,19.67
2022-09-22T16:23:33.512Z,19.67
2022-09-22T16:26:00.104Z,19.67
2022-09-22T16:28:26.766Z,19.63
2022-09-22T16:30:53.285Z,19.60
2022-09-22T16:33:19.763Z,19.54
2022-09-22T16:35:46.318Z,19.45
2022-09-22T16:38:12.910Z,19.40
2022-09-22T16:40:39.737Z,19.35
2022-09-22T16:43:08.741Z,19.29
2022-09-22T16:45:54.157Z,19.25
2022-09-22T16:48:20.716Z,19.22
2022-09-22T16:50:47.227Z,19.18
2022-09-22T16:53:14.218Z,19.07
2022-09-22T16:55:48.220Z,18.88
2022-09-22T16:58:14.746Z,18.65
2022-09-22T17:00:41.249Z,18.45
2022-09-22T17:03:08.290Z,18.24
2022-09-22T17:05:35.272Z,18.05
2022-09-22T17:08:06.523Z,17.88
2022-09-22T17:10:35.813Z,17.68
2022-09-22T17:13:04.707Z,17.52
2022-09-22T17:15:35.890Z,17.34
2022-09-22T17:18:03.896Z,17.19
2022-09-22T17:20:30.587Z,17.05
2022-09-22T17:22:57.801Z,16.91
2022-09-22T17:25:29.137Z,16.78
2022-09-22T17:27:56.350Z,16.66
2022-09-22T17:30:22.867Z,16.52
2022-09-22T17:32:49.539Z,16.41
2022-09-22T17:35:16.067Z,16.28
2022-09-22T17:37:42.525Z,16.16
2022-09-22T17:40:11.259Z,16.04
2022-09-22T17:42:38.146Z,15.95
2022-09-22T17:45:07.253Z,15.84
2022-09-22T17:47:52.341Z,15.76
2022-09-22T17:50:37.315Z,15.67
2022-09-22T17:53:22.377Z,15.56
2022-09-22T17:55:49.099Z,15.43
2022-09-22T17:58:15.525Z,15.31
2022-09-22T18:00:42.181Z,15.23
2022-09-22T18:03:09.416Z,15.14
2022-09-22T18:05:38.739Z,15.03
2022-09-22T18:08:05.239Z,14.95
2022-09-22T18:10:34.539Z,14.84
2022-09-22T18:13:01.601Z,14.76
2022-09-22T18:15:29.090Z,14.68
2022-09-22T18:17:57.978Z,14.60
2022-09-22T18:20:26.077Z,14.50
2022-09-22T18:22:53.006Z,14.41
2022-09-22T18:25:23.012Z,14.31
2022-09-22T18:27:49.929Z,14.21
2022-09-22T18:30:19.257Z,14.11
2022-09-22T18:32:47.373Z,14.05
2022-09-22T18:35:14.299Z,13.97
2022-09-22T18:37:41.116Z,13.88
2022-09-22T18:40:09.042Z,13.80
2022-09-22T18:42:36.596Z,13.73
2022-09-22T18:45:03.745Z,13.68
2022-09-22T18:47:30.213Z,13.61
2022-09-22T18:49:56.893Z,13.55
2022-09-22T18:52:24.298Z,13.48
2022-09-22T18:54:53.745Z,13.42
2022-09-22T18:57:22.236Z,13.33
2022-09-22T18:59:50.755Z,13.28
2022-09-22T19:02:19.317Z,13.22
2022-09-22T19:04:45.905Z,13.17
2022-09-22T19:07:31.157Z,13.11
2022-09-22T19:09:57.592Z,13.06
2022-09-22T19:12:24.071Z,13.00
2022-09-22T19:14:54.414Z,12.94
2022-09-22T19:17:20.920Z,12.86
2022-09-22T19:19:48.957Z,12.80
2022-09-22T19:22:15.880Z,12.70
2022-09-22T19:24:44.728Z,12.60
2022-09-22T19:27:13.076Z,12.54
2022-09-22T19:29:39.508Z,12.50
2022-09-22T19:32:06.203Z,12.43
2022-09-22T19:34:33.182Z,12.39
2022-09-22T19:37:00.004Z,12.34
2022-09-22T19:39:26.903Z,12.30
2022-09-22T19:41:54.778Z,12.27
2022-09-22T19:44:22.478Z,12.23
2022-09-22T19:46:50.053Z,12.19
2022-09-22T19:49:17.202Z,12.16
2022-09-22T19:51:43.993Z,12.13
2022-09-22T19:54:10.873Z,12.08
2022-09-22T19:56:37.608Z,12.01
2022-09-22T19:59:07.099Z,11.95
2022-09-22T20:01:39.369Z,11.88
2022-09-22T20:04:07.116Z,11.81
2022-09-22T20:06:34.419Z,11.73
2022-09-22T20:09:03.754Z,11.60
2022-09-22T20:11:38.396Z,11.54
2022-09-22T20:14:22.182Z,11.53
2022-09-22T20:17:04.059Z,11.51
2022-09-22T20:19:32.791Z,11.50
2022-09-22T20:22:25.347Z,11.46
2022-09-22T20:24:57.225Z,11.40
2022-09-22T20:27:29.567Z,11.34
2022-09-22T20:29:57.665Z,11.27
2022-09-22T20:32:31.451Z,11.22
2022-09-22T20:34:57.887Z,11.16
2022-09-22T20:37:24.952Z,11.11
2022-09-22T20:39:51.734Z,11.04
2022-09-22T20:42:18.202Z,11.03
2022-09-22T20:44:45.127Z,11.01
2022-09-22T20:47:19.236Z,10.97
2022-09-22T20:49:51.284Z,10.92
2022-09-22T20:52:19.919Z,10.86
2022-09-22T20:54:46.689Z,10.77
2022-09-22T20:57:14.031Z,10.68
2022-09-22T20:59:40.703Z,10.61
2022-09-22T21:02:07.263Z,10.61
2022-09-22T21:04:33.866Z,10.61
2022-09-22T21:07:01.397Z,10.61
2022-09-22T21:09:46.584Z,10.59
2022-09-22T21:12:13.557Z,10.54
2022-09-22T21:14:45.935Z,10.51
2022-09-22T21:17:13.595Z,10.47
2022-09-22T21:19:40.411Z,10.41
2022-09-22T21:22:06.901Z,10.40
2022-09-22T21:24:34.070Z,10.39
2022-09-22T21:27:00.579Z,10.37
2022-09-22T21:29:28.659Z,10.32
2022-09-22T21:31:56.618Z,10.24
2022-09-22T21:34:23.999Z,10.18
2022-09-22T21:36:51.318Z,10.17
2022-09-22T21:39:18.076Z,10.18
2022-09-22T21:41:44.779Z,10.18
2022-09-22T21:44:11.284Z,10.12
2022-09-22T21:46:40.742Z,10.05
2022-09-22T21:49:08.901Z,9.96
2022-09-22T21:51:41.184Z,9.92
2022-09-22T21:54:12.820Z,9.90
2022-09-22T21:56:39.395Z,9.85
2022-09-22T21:59:05.888Z,9.82
2022-09-22T22:01:36.064Z,9.83
2022-09-22T22:04:07.900Z,9.83
2022-09-22T22:06:37.890Z,9.81
2022-09-22T22:09:07.042Z,9.74
2022-09-22T22:11:39.401Z,9.65
2022-09-22T22:14:08.302Z,9.56
2022-09-22T22:16:40.457Z,9.49
2022-09-22T22:19:09.532Z,9.45
2022-09-22T22:21:36.644Z,9.42
2022-09-22T22:24:23.183Z,9.35
2022-09-22T22:26:52.590Z,9.30
2022-09-22T22:29:20.893Z,9.24
2022-09-22T22:31:51.548Z,9.23
2022-09-22T22:34:20.836Z,9.22
2022-09-22T22:36:48.691Z,9.24
2022-09-22T22:39:15.328Z,9.20
2022-09-22T22:41:41.874Z,9.14
2022-09-22T22:44:08.551Z,9.12
2022-09-22T22:46:36.082Z,9.11
2022-09-22T22:49:03.310Z,9.12
2022-09-22T22:51:29.987Z,9.10
2022-09-22T22:53:56.754Z,9.06
2022-09-22T22:56:25.449Z,9.05
2022-09-22T22:58:53.202Z,9.02
2022-09-22T23:01:23.611Z,8.99
2022-09-22T23:03:52.899Z,8.97
2022-09-22T23:06:43.647Z,8.91
2022-09-22T23:09:13.997Z,8.86
2022-09-22T23:11:41.551Z,8.82
2022-09-22T23:14:11.383Z,8.77
2022-09-22T23:16:43.468Z,8.74
2022-09-22T23:19:12.676Z,8.72
2022-09-22T23:21:39.172Z,8.69
2022-09-22T23:24:06.118Z,8.64
2022-09-22T23:26:33.046Z,8.61
2022-09-22T23:28:59.944Z,8.59
2022-09-22T23:31:26.890Z,8.59
2022-09-22T23:33:54.144Z,8.55
2022-09-22T23:36:24.121Z,8.51
2022-09-22T23:39:03.990Z,8.49
2022-09-22T23:41:32.987Z,8.51
2022-09-22T23:43:59.552Z,8.51
2022-09-22T23:46:26.141Z,8.50
2022-09-22T23:48:52.685Z,8.47
2022-09-22T23:51:19.571Z,8.46
2022-09-22T23:53:46.228Z,8.47
2022-09-22T23:56:13.996Z,8.46
2022-09-22T23:58:40.549Z,8.43
